createdAt,value
2016-08-29T00:04:47.681Z,"    0"
2016-08-29T00:09:44.818Z,"    0"
2016-08-29T00:14:41.130Z,"    0"
2016-08-29T00:19:37.794Z,"    0"
2016-08-29T00:24:34.505Z,"    0"
2016-08-29T00:29:31.213Z,"    0"
2016-08-29T00:34:27.908Z,"    0"
2016-08-29T00:39:24.763Z,"    0"
2016-08-29T00:44:21.416Z,"    0"
2016-08-29T00:49:18.244Z,"    0"
2016-08-29T00:54:14.890Z,"    0"
2016-08-29T00:59:11.736Z,"    0"
2016-08-29T01:04:08.452Z,"    0"
2016-08-29T01:09:05.309Z,"    0"
2016-08-29T01:14:02.677Z,"    0"
2016-08-29T01:18:59.227Z,"    0"
2016-08-29T01:23:55.985Z,"    0"
2016-08-29T01:28:52.733Z,"    0"
2016-08-29T01:33:49.740Z,"    0"
2016-08-29T01:38:46.420Z,"    0"
2016-08-29T01:43:43.124Z,"    0"
2016-08-29T01:48:40.179Z,"    0"
2016-08-29T01:53:37.031Z,"    0"
2016-08-29T01:58:33.614Z,"    0"
2016-08-29T02:03:30.215Z,"    0"
2016-08-29T02:08:26.996Z,"    0"
2016-08-29T02:13:26.133Z,"    0"
2016-08-29T02:18:22.223Z,"    0"
2016-08-29T02:23:18.781Z,"    0"
2016-08-29T02:28:17.843Z,"    0"
2016-08-29T02:33:13.934Z,"    0"
2016-08-29T02:38:10.651Z,"    0"
2016-08-29T02:43:07.222Z,"    0"
2016-08-29T02:48:04.093Z,"    0"
2016-08-29T02:53:01.118Z,"    0"
2016-08-29T02:57:57.664Z,"    0"
2016-08-29T03:02:54.367Z,"    0"
2016-08-29T03:07:51.547Z,"    0"
2016-08-29T03:12:48.550Z,"    0"
2016-08-29T03:17:45.313Z,"    0"
2016-08-29T03:22:42.096Z,"    0"
2016-08-29T03:27:38.710Z,"    0"
2016-08-29T03:32:35.377Z,"    0"
2016-08-29T03:37:31.990Z,"    0"
2016-08-29T03:42:28.727Z,"    0"
2016-08-29T03:47:25.476Z,"    0"
2016-08-29T03:52:23.025Z,"    0"
2016-08-29T03:57:19.238Z,"    0"
2016-08-29T04:02:15.684Z,"    0"
2016-08-29T04:07:14.715Z,"    0"
2016-08-29T04:12:10.762Z,"    0"
2016-08-29T04:17:08.100Z,"    0"
2016-08-29T04:22:04.910Z,"    0"
2016-08-29T04:27:01.483Z,"    0"
2016-08-29T04:31:58.111Z,"    0"
2016-08-29T04:36:54.875Z,"    0"
2016-08-29T04:41:51.566Z,"    0"
2016-08-29T04:46:48.194Z,"    0"
2016-08-29T04:51:44.724Z,"    0"
2016-08-29T04:56:41.393Z,"    0"
2016-08-29T05:01:37.901Z,"    0"
2016-08-29T05:06:34.411Z,"    0"
2016-08-29T05:11:31.207Z,"    0"
2016-08-29T05:16:27.715Z,"    0"
2016-08-29T05:21:24.239Z,"    0"
2016-08-29T05:26:21.053Z,"    0"
2016-08-29T05:31:17.828Z,"    0"
2016-08-29T05:36:14.441Z,"    0"
2016-08-29T05:41:11.108Z,"    0"
2016-08-29T05:46:07.754Z,"    0"
2016-08-29T05:51:04.439Z,"    0"
2016-08-29T05:56:00.857Z,"    0"
2016-08-29T06:00:57.603Z,"    0"
2016-08-29T06:05:54.002Z,"    5"
2016-08-29T06:10:50.524Z,"    5"
2016-08-29T06:15:47.110Z,"    5"
2016-08-29T06:20:43.759Z,"    0"
2016-08-29T06:25:41.801Z,"    5"
2016-08-29T06:30:38.137Z,"    5"
2016-08-29T06:35:35.417Z,"    5"
2016-08-29T06:40:32.236Z,"    5"
2016-08-29T06:45:29.484Z,"    5"
2016-08-29T06:50:26.215Z,"    5"
2016-08-29T06:55:25.373Z,"   10"
2016-08-29T07:00:21.515Z,"   10"
2016-08-29T07:05:18.216Z,"   10"
2016-08-29T07:10:14.941Z,"   15"
2016-08-29T07:15:11.644Z,"   15"
2016-08-29T07:20:08.283Z,"   35"
2016-08-29T07:25:04.975Z,"   30"
2016-08-29T07:30:01.529Z,"   30"
2016-08-29T07:34:58.664Z,"   15"
2016-08-29T07:39:55.304Z,"   40"
2016-08-29T07:44:52.070Z,"   70"
2016-08-29T07:49:48.795Z,"   55"
2016-08-29T07:54:45.893Z,"   45"
2016-08-29T07:59:42.594Z,"   15"
2016-08-29T08:04:39.144Z,"   20"
2016-08-29T08:09:35.582Z,"   10"
2016-08-29T08:14:32.354Z,"   15"
2016-08-29T08:19:29.038Z,"   30"
2016-08-29T08:24:25.726Z,"  100"
2016-08-29T08:29:23.091Z,"   40"
2016-08-29T08:34:19.627Z,"   60"
2016-08-29T08:39:16.759Z,"   65"
2016-08-29T08:44:13.809Z,"   80"
2016-08-29T08:49:10.231Z,"   90"
2016-08-29T08:54:07.799Z,"   75"
2016-08-29T08:59:04.403Z,"   10"
2016-08-29T09:04:00.364Z,"    5"
2016-08-29T09:08:56.809Z,"   10"
2016-08-29T09:13:53.257Z,"   10"
2016-08-29T09:18:51.546Z,"   10"
2016-08-29T09:23:47.803Z,"   20"
2016-08-29T09:28:44.535Z,"   15"
2016-08-29T09:33:41.212Z,"   15"
2016-08-29T09:38:38.057Z,"   15"
2016-08-29T09:43:34.718Z,"   20"
2016-08-29T09:48:31.545Z,"   25"
2016-08-29T09:53:28.582Z,"   25"
2016-08-29T09:58:25.449Z,"   25"
2016-08-29T10:03:22.105Z,"   25"
2016-08-29T10:08:18.697Z,"   35"
2016-08-29T10:13:15.471Z,"   40"
2016-08-29T10:18:12.549Z,"   30"
2016-08-29T10:23:09.335Z,"   25"
2016-08-29T10:28:05.779Z,"   25"
2016-08-29T10:33:02.553Z,"   35"
2016-08-29T10:37:59.310Z,"   45"
2016-08-29T10:42:55.926Z,"   45"
2016-08-29T10:47:53.467Z,"   30"
2016-08-29T10:52:49.836Z,"   45"
2016-08-29T10:57:46.527Z,"   30"
2016-08-29T11:02:43.191Z,"   20"
2016-08-29T11:07:40.974Z,"   20"
2016-08-29T11:12:37.565Z,"   20"
2016-08-29T11:17:35.173Z,"   30"
2016-08-29T11:22:31.561Z,"   40"
2016-08-29T11:27:28.245Z,"   40"
2016-08-29T11:32:25.011Z,"   35"
2016-08-29T11:37:22.110Z,"   40"
2016-08-29T11:42:18.898Z,"   40"
2016-08-29T11:47:17.005Z,"   40"
2016-08-29T11:52:13.439Z,"   40"
2016-08-29T11:57:10.119Z,"   40"
2016-08-29T12:02:07.007Z,"   40"
2016-08-29T12:07:04.125Z,"   30"
2016-08-29T12:12:00.745Z,"   30"
2016-08-29T12:16:57.852Z,"   40"
2016-08-29T12:21:54.627Z,"   35"
2016-08-29T12:26:51.371Z,"   30"
2016-08-29T12:31:47.986Z,"   30"
2016-08-29T12:36:44.658Z,"   35"
2016-08-29T12:41:41.019Z,"   20"
2016-08-29T12:46:37.710Z,"   15"
2016-08-29T12:51:34.386Z,"   25"
2016-08-29T12:56:31.072Z,"   35"
2016-08-29T13:01:27.767Z,"   35"
2016-08-29T13:06:24.419Z,"   35"
2016-08-29T13:11:21.010Z,"   35"
2016-08-29T13:16:17.721Z,"   30"
2016-08-29T13:21:14.475Z,"   25"
2016-08-29T13:26:11.554Z,"   25"
2016-08-29T13:31:08.234Z,"   25"
2016-08-29T13:36:04.926Z,"   25"
2016-08-29T13:41:02.031Z,"   25"
2016-08-29T13:45:59.192Z,"   20"
2016-08-29T13:50:55.588Z,"   20"
2016-08-29T13:55:52.197Z,"   20"
2016-08-29T14:00:48.794Z,"   30"
2016-08-29T14:05:45.702Z,"   30"
2016-08-29T14:10:42.703Z,"   25"
2016-08-29T14:15:39.652Z,"   10"
2016-08-29T14:20:36.427Z,"   15"
2016-08-29T14:25:33.023Z,"   20"
2016-08-29T14:30:30.153Z,"   25"
2016-08-29T14:35:26.877Z,"   25"
2016-08-29T14:40:24.743Z,"   25"
2016-08-29T14:45:20.889Z,"   20"
2016-08-29T14:50:18.791Z,"   20"
2016-08-29T14:55:15.370Z,"   20"
2016-08-29T15:00:12.143Z,"   20"
2016-08-29T15:05:08.669Z,"   20"
2016-08-29T15:10:05.355Z,"   20"
2016-08-29T15:15:04.310Z,"   20"
2016-08-29T15:20:00.602Z,"   15"
2016-08-29T15:25:02.382Z,"   20"
2016-08-29T15:29:58.187Z,"   15"
2016-08-29T15:34:54.802Z,"   15"
2016-08-29T15:39:51.461Z,"   15"
2016-08-29T15:44:48.348Z,"   15"
2016-08-29T15:49:47.626Z,"   10"
2016-08-29T15:54:43.562Z,"   10"
2016-08-29T15:59:41.656Z,"    5"
2016-08-29T16:04:37.891Z,"   10"
2016-08-29T16:09:34.459Z,"   10"
2016-08-29T16:14:31.151Z,"   15"
2016-08-29T16:19:28.083Z,"   10"
2016-08-29T16:24:24.732Z,"    5"
2016-08-29T16:29:21.660Z,"    5"
2016-08-29T16:34:18.340Z,"    5"
2016-08-29T16:39:14.906Z,"    5"
2016-08-29T16:44:11.503Z,"    5"
2016-08-29T16:49:08.129Z,"    5"
2016-08-29T16:54:04.905Z,"    5"
2016-08-29T16:59:01.656Z,"    5"
2016-08-29T17:03:58.388Z,"    5"
2016-08-29T17:08:55.537Z,"    5"
2016-08-29T17:13:52.084Z,"    5"
2016-08-29T17:18:48.651Z,"    0"
2016-08-29T17:23:45.424Z,"    5"
2016-08-29T17:28:42.091Z,"    5"
2016-08-29T17:33:38.665Z,"    0"
2016-08-29T17:38:34.962Z,"    0"
2016-08-29T17:43:32.080Z,"    0"
2016-08-29T17:48:28.515Z,"    0"
2016-08-29T17:53:25.192Z,"    0"
2016-08-29T17:58:21.801Z,"    0"
2016-08-29T18:03:18.628Z,"    0"
2016-08-29T18:08:15.235Z,"    0"
2016-08-29T18:13:12.061Z,"    0"
2016-08-29T18:18:08.678Z,"    0"
2016-08-29T18:23:05.252Z,"    0"
2016-08-29T18:28:02.159Z,"    0"
2016-08-29T18:32:58.598Z,"    0"
2016-08-29T18:37:55.173Z,"    0"
2016-08-29T18:42:51.733Z,"    0"
2016-08-29T18:47:48.326Z,"    0"
2016-08-29T18:52:45.107Z,"    0"
2016-08-29T18:57:41.756Z,"    0"
2016-08-29T19:02:41.117Z,"    0"
2016-08-29T19:07:42.580Z,"    0"
2016-08-29T19:12:38.323Z,"    0"
2016-08-29T19:17:37.221Z,"    0"
2016-08-29T19:22:33.291Z,"    0"
2016-08-29T19:27:29.981Z,"    0"
2016-08-29T19:32:26.540Z,"    0"
2016-08-29T19:37:23.121Z,"    0"
2016-08-29T19:42:19.703Z,"    0"
2016-08-29T19:47:16.247Z,"    0"
2016-08-29T19:52:12.906Z,"    0"
2016-08-29T19:57:09.557Z,"    0"
2016-08-29T20:02:07.910Z,"    0"
2016-08-29T20:07:04.304Z,"    0"
2016-08-29T20:12:00.937Z,"    0"
2016-08-29T20:16:57.668Z,"    0"
2016-08-29T20:21:54.644Z,"    0"
2016-08-29T20:26:51.623Z,"    0"
2016-08-29T20:31:48.363Z,"    0"
2016-08-29T20:36:45.371Z,"    0"
2016-08-29T20:41:42.016Z,"    0"
2016-08-29T20:46:38.566Z,"    0"
2016-08-29T20:51:35.287Z,"    0"
2016-08-29T20:56:32.624Z,"    0"
2016-08-29T21:01:29.063Z,"    0"
2016-08-29T21:06:26.720Z,"    0"
2016-08-29T21:11:23.451Z,"    0"
2016-08-29T21:16:20.165Z,"    0"
2016-08-29T21:21:16.825Z,"    0"
2016-08-29T21:26:13.253Z,"    0"
2016-08-29T21:31:10.280Z,"    0"
2016-08-29T21:36:06.970Z,"    0"
2016-08-29T21:41:03.537Z,"    0"
2016-08-29T21:46:00.192Z,"    0"
2016-08-29T21:50:56.909Z,"    0"
2016-08-29T21:55:53.347Z,"    0"
2016-08-29T22:00:50.068Z,"    0"
2016-08-29T22:05:47.032Z,"    0"
2016-08-29T22:10:43.573Z,"    0"
2016-08-29T22:15:40.476Z,"    0"
2016-08-29T22:20:38.287Z,"    0"
2016-08-29T22:25:34.706Z,"    0"
2016-08-29T22:30:31.365Z,"    0"
2016-08-29T22:35:28.018Z,"    0"
2016-08-29T22:40:24.427Z,"    0"
2016-08-29T22:45:22.074Z,"    0"
2016-08-29T22:50:18.517Z,"    0"
2016-08-29T22:55:14.958Z,"    0"
2016-08-29T23:00:11.474Z,"    0"
2016-08-29T23:05:08.705Z,"    0"
2016-08-29T23:10:05.128Z,"    0"
2016-08-29T23:15:03.279Z,"    0"
2016-08-29T23:19:59.777Z,"    0"
2016-08-29T23:24:56.865Z,"    0"
2016-08-29T23:29:53.552Z,"    0"
2016-08-29T23:34:50.007Z,"    0"
2016-08-29T23:39:46.589Z,"    0"
2016-08-29T23:44:43.550Z,"    0"
2016-08-29T23:49:40.696Z,"    0"
2016-08-29T23:54:37.171Z,"    0"
2016-08-29T23:59:34.208Z,"    0"
